createdAt,value
2022-08-24T00:01:36.980Z,14.88
2022-08-24T00:06:39.569Z,18.23
2022-08-24T00:11:43.450Z,14.13
2022-08-24T00:16:46.509Z,18.45
2022-08-24T00:21:49.268Z,17.20
2022-08-24T00:26:53.892Z,18.10
2022-08-24T00:31:56.523Z,17.90
2022-08-24T00:36:59.221Z,17.92
2022-08-24T00:42:03.231Z,20.17
2022-08-24T00:47:19.956Z,23.73
2022-08-24T00:52:25.891Z,21.92
2022-08-24T00:57:33.403Z,25.02
2022-08-24T01:02:43.618Z,20.63
2022-08-24T01:07:50.584Z,19.95
2022-08-24T01:13:01.464Z,24.25
2022-08-24T01:18:23.525Z,22.20
2022-08-24T01:23:36.976Z,24.33
2022-08-24T01:28:41.551Z,26.25
2022-08-24T01:33:44.059Z,29.70
2022-08-24T01:38:48.875Z,26.25
2022-08-24T01:43:51.469Z,27.17
2022-08-24T01:48:54.122Z,39.45
2022-08-24T01:53:59.150Z,48.35
2022-08-24T01:59:02.006Z,26.90
2022-08-24T02:04:06.437Z,26.98
2022-08-24T02:09:13.886Z,32.95
2022-08-24T02:14:16.484Z,26.92
2022-08-24T02:19:19.062Z,31.77
2022-08-24T02:24:23.504Z,32.53
2022-08-24T02:29:26.215Z,37.15
2022-08-24T02:34:29.071Z,36.53
2022-08-24T02:39:33.256Z,42.80
2022-08-24T02:44:35.889Z,41.10
2022-08-24T02:49:38.971Z,40.88
2022-08-24T02:54:43.906Z,39.47
2022-08-24T02:59:46.570Z,38.90
2022-08-24T03:04:49.388Z,38.88
2022-08-24T03:09:53.485Z,43.33
2022-08-24T03:14:56.140Z,38.67
2022-08-24T03:19:58.723Z,41.70
2022-08-24T03:25:02.663Z,39.03
2022-08-24T03:30:06.296Z,39.72
2022-08-24T03:35:11.354Z,37.38
2022-08-24T03:40:22.982Z,41.13
2022-08-24T03:45:28.117Z,40.50
2022-08-24T03:55:34.365Z,38.35
2022-08-24T04:00:37.794Z,45.55
2022-08-24T04:05:42.190Z,35.63
2022-08-24T04:10:46.459Z,35.80
2022-08-24T04:15:51.297Z,38.40
2022-08-24T04:20:54.833Z,38.78
2022-08-24T04:26:04.885Z,35.43
2022-08-24T04:31:08.083Z,39.45
2022-08-24T04:41:16.414Z,34.58
2022-08-24T04:46:30.309Z,33.85
2022-08-24T04:51:36.657Z,36.92
2022-08-24T04:56:40.921Z,36.45
2022-08-24T05:01:44.377Z,35.38
2022-08-24T05:06:47.059Z,36.83
2022-08-24T05:11:57.462Z,34.03
2022-08-24T05:17:00.011Z,37.25
2022-08-24T05:22:05.563Z,38.55
2022-08-24T05:27:09.926Z,31.83
2022-08-24T05:32:19.115Z,37.55
2022-08-24T05:37:21.815Z,37.88
2022-08-24T05:42:25.855Z,36.15
2022-08-24T05:47:28.444Z,32.88
2022-08-24T05:52:31.093Z,36.20
2022-08-24T05:57:37.078Z,42.08
2022-08-24T06:02:39.751Z,47.47
2022-08-24T06:07:42.407Z,47.00
2022-08-24T06:12:46.340Z,47.13
2022-08-24T06:17:48.952Z,44.45
2022-08-24T06:22:51.702Z,44.10
2022-08-24T06:27:55.701Z,44.60
2022-08-24T06:33:00.543Z,42.45
2022-08-24T06:38:03.157Z,45.97
2022-08-24T06:43:07.039Z,38.35
2022-08-24T06:48:09.593Z,33.45
2022-08-24T06:53:14.677Z,31.70
2022-08-24T06:58:19.114Z,30.27
2022-08-24T07:03:22.486Z,29.55
2022-08-24T07:08:25.417Z,30.73
2022-08-24T07:13:31.059Z,29.98
2022-08-24T07:18:34.011Z,27.13
2022-08-24T07:23:42.001Z,25.85
2022-08-24T07:28:46.815Z,26.92
2022-08-24T07:33:49.360Z,22.85
2022-08-24T07:38:53.095Z,23.98
2022-08-24T07:43:56.999Z,21.10
2022-08-24T07:49:11.034Z,20.73
2022-08-24T07:54:15.946Z,18.20
2022-08-24T07:59:19.775Z,19.05
2022-08-24T08:04:25.048Z,16.58
2022-08-24T08:09:28.202Z,14.35
2022-08-24T08:14:32.089Z,15.50
2022-08-24T08:19:34.670Z,17.00
2022-08-24T08:24:39.779Z,13.07
2022-08-24T08:29:44.241Z,10.23
2022-08-24T08:34:47.933Z,8.43
2022-08-24T08:39:50.806Z,9.48
2022-08-24T08:45:15.954Z,9.30
2022-08-24T08:50:23.816Z,9.00
2022-08-24T08:55:31.935Z,8.40
2022-08-24T09:00:55.841Z,10.32
2022-08-24T09:06:28.513Z,6.80
2022-08-24T09:11:42.435Z,5.03
2022-08-24T09:17:06.658Z,5.93
2022-08-24T09:22:14.910Z,4.80
2022-08-24T09:27:31.338Z,4.47
2022-08-24T09:33:00.549Z,3.80
2022-08-24T09:38:17.710Z,1.83
2022-08-24T09:44:03.403Z,4.10
2022-08-24T09:49:26.736Z,0.70
2022-08-24T09:54:48.546Z,4.15
2022-08-24T10:05:20.405Z,1.42
2022-08-24T10:10:35.622Z,1.90
2022-08-24T10:15:48.781Z,1.10
2022-08-24T10:21:08.652Z,3.45
2022-08-24T10:26:20.978Z,2.83
2022-08-24T10:31:32.131Z,2.50
2022-08-24T10:42:44.048Z,1.85
2022-08-24T10:48:05.537Z,1.35
2022-08-24T10:58:45.107Z,1.70
2022-08-24T11:03:51.420Z,1.77
2022-08-24T11:08:59.496Z,2.55
2022-08-24T11:14:06.311Z,3.42
2022-08-24T11:19:14.162Z,2.78
2022-08-24T11:24:43.444Z,1.83
2022-08-24T11:30:07.314Z,3.67
2022-08-24T11:35:18.348Z,2.92
2022-08-24T11:40:27.586Z,1.70
2022-08-24T11:45:37.671Z,1.60
2022-08-24T11:50:46.421Z,3.22
2022-08-24T11:56:03.727Z,1.75
2022-08-24T12:01:15.562Z,3.08
2022-08-24T12:06:32.252Z,1.20
2022-08-24T12:11:43.330Z,7.18
2022-08-24T12:16:54.577Z,1.45
2022-08-24T12:22:01.587Z,2.92
2022-08-24T12:27:10.711Z,2.35
2022-08-24T12:32:16.552Z,1.73
2022-08-24T12:37:28.322Z,1.73
2022-08-24T12:42:40.975Z,2.55
2022-08-24T12:47:51.395Z,1.50
2022-08-24T12:53:30.897Z,2.33
2022-08-24T12:58:55.226Z,3.05
2022-08-24T13:04:12.539Z,2.53
2022-08-24T13:09:27.128Z,1.70
2022-08-24T13:14:32.334Z,1.70
2022-08-24T13:19:38.644Z,3.40
2022-08-24T13:24:45.728Z,3.22
2022-08-24T13:29:55.274Z,1.85
2022-08-24T13:34:59.844Z,3.83
2022-08-24T13:40:15.257Z,2.00
2022-08-24T13:45:35.244Z,2.30
2022-08-24T13:50:47.651Z,2.47
2022-08-24T13:55:53.608Z,1.67
2022-08-24T14:01:04.103Z,3.70
2022-08-24T14:06:22.975Z,1.63
2022-08-24T14:11:41.149Z,2.75
2022-08-24T14:17:35.427Z,3.53
2022-08-24T14:23:00.391Z,2.22
2022-08-24T14:28:32.753Z,1.60
2022-08-24T14:33:47.575Z,1.70
2022-08-24T14:39:06.425Z,4.05
2022-08-24T14:44:19.843Z,3.60
2022-08-24T14:49:32.366Z,2.58
2022-08-24T14:54:45.281Z,5.07
2022-08-24T14:59:58.630Z,2.67
2022-08-24T15:05:16.130Z,3.65
2022-08-24T15:10:26.339Z,2.63
2022-08-24T15:15:34.281Z,3.00
2022-08-24T15:20:59.471Z,1.80
2022-08-24T15:26:08.007Z,2.50
2022-08-24T15:31:12.129Z,4.63
2022-08-24T15:36:18.297Z,2.25
2022-08-24T15:41:24.469Z,1.42
2022-08-24T15:46:29.669Z,2.50
2022-08-24T15:51:44.464Z,1.52
2022-08-24T15:56:49.507Z,2.65
2022-08-24T16:02:16.200Z,2.33
2022-08-24T16:07:25.821Z,2.50
2022-08-24T16:12:32.426Z,1.67
2022-08-24T16:17:39.331Z,1.30
2022-08-24T16:22:58.575Z,3.85
2022-08-24T16:28:10.435Z,3.33
2022-08-24T16:33:43.516Z,2.83
2022-08-24T16:38:50.210Z,2.58
2022-08-24T16:43:53.112Z,2.67
2022-08-24T16:48:55.739Z,2.47
2022-08-24T16:54:00.402Z,2.95
2022-08-24T16:59:03.054Z,1.58
2022-08-24T17:04:06.081Z,2.50
2022-08-24T17:09:10.122Z,3.90
2022-08-24T17:14:12.776Z,1.70
2022-08-24T17:19:18.676Z,3.03
2022-08-24T17:24:25.031Z,1.75
2022-08-24T17:29:28.188Z,5.57
2022-08-24T17:34:31.514Z,2.90
2022-08-24T17:39:35.717Z,3.78
2022-08-24T17:44:39.180Z,4.15
2022-08-24T17:49:41.903Z,2.35
2022-08-24T17:54:45.753Z,2.63
2022-08-24T17:59:50.633Z,2.88
2022-08-24T18:04:53.179Z,3.22
2022-08-24T18:10:00.585Z,2.75
2022-08-24T18:15:03.222Z,4.57
2022-08-24T18:20:09.885Z,2.83
2022-08-24T18:25:15.098Z,5.78
2022-08-24T18:30:22.605Z,3.17
2022-08-24T18:35:28.132Z,3.85
2022-08-24T18:40:33.077Z,2.97
2022-08-24T18:45:36.327Z,3.80
2022-08-24T18:50:41.989Z,4.57
2022-08-24T18:55:47.896Z,4.88
2022-08-24T19:00:51.567Z,6.15
2022-08-24T19:05:54.317Z,4.15
2022-08-24T19:10:58.189Z,4.35
2022-08-24T19:16:02.195Z,3.95
2022-08-24T19:21:04.885Z,2.75
2022-08-24T19:26:08.849Z,6.53
2022-08-24T19:31:14.043Z,4.38
2022-08-24T19:36:16.627Z,3.45
2022-08-24T19:41:21.359Z,2.90
2022-08-24T19:46:25.095Z,4.10
2022-08-24T19:51:27.742Z,3.58
2022-08-24T19:56:31.619Z,7.63
2022-08-24T20:01:37.271Z,6.10
2022-08-24T20:06:40.874Z,4.35
2022-08-24T20:11:44.830Z,4.15
2022-08-24T20:16:47.679Z,4.45
2022-08-24T20:21:50.277Z,4.88
2022-08-24T20:32:01.253Z,4.40
2022-08-24T20:37:04.517Z,3.55
2022-08-24T20:42:13.949Z,3.88
2022-08-24T20:47:18.893Z,4.68
2022-08-24T20:52:21.603Z,4.15
2022-08-24T20:57:26.416Z,4.85
2022-08-24T21:02:28.927Z,3.80
2022-08-24T21:07:31.470Z,3.83
2022-08-24T21:22:40.339Z,5.68
2022-08-24T21:33:06.678Z,4.90
2022-08-24T21:38:11.343Z,5.00
2022-08-24T21:43:17.885Z,5.47
2022-08-24T21:48:20.766Z,6.95
2022-08-24T21:58:32.507Z,7.72
2022-08-24T22:03:37.506Z,5.93
2022-08-24T22:08:44.719Z,5.90
2022-08-24T22:13:48.621Z,8.02
2022-08-24T22:18:51.181Z,5.75
2022-08-24T22:23:55.323Z,4.68
2022-08-24T22:29:01.738Z,4.88
2022-08-24T22:34:07.959Z,4.32
2022-08-24T22:39:13.424Z,5.32
2022-08-24T22:44:21.078Z,6.35
2022-08-24T22:49:25.671Z,5.07
2022-08-24T22:54:29.550Z,5.18
2022-08-24T22:59:35.962Z,4.93
2022-08-24T23:04:40.412Z,5.45
2022-08-24T23:09:45.537Z,5.20
2022-08-24T23:14:50.232Z,7.63
2022-08-24T23:20:05.515Z,5.38
2022-08-24T23:25:11.599Z,3.95
2022-08-24T23:30:15.735Z,3.95
2022-08-24T23:35:18.261Z,4.47
2022-08-24T23:40:20.862Z,5.80
2022-08-24T23:45:28.500Z,5.15
2022-08-24T23:50:33.790Z,6.38
2022-08-24T23:55:36.488Z,5.05
